KLAW/LAW METAR and TAF weather

Enter ICAO airport designator
Station Type Date Time Source
KLAW METAR 2019/11/18 08:53 UTC NOAA

KLAW 180853Z AUTO 00000KT 10SM CLR 01/M02 A2999 RMK AO2 SLP155 T00061017 56017


Station Type Date Time Source
KLAW Decoded METAR 2019/11/18 08:53 UTC NOAA

LAWTON - FORT SILL REGIONAL, OK, United States (KLAW) 34-34N 98-25W 337M
Nov 18, 2019 - 03:53 AM EST / 2019.11.18 0853 UTC
Wind: Calm:0
Visibility: 10 mile(s):0
Sky conditions: clear
Temperature: 33.1 F (0.6 C)
Dew Point: 28.9 F (-1.7 C)
Relative Humidity: 84%
Pressure (altimeter): 29.99 in. Hg (1015 hPa)
Pressure tendency: 0.05 inches (1.7 hPa) lower than three hours ago
ob: KLAW 180853Z AUTO 00000KT 10SM CLR 01/M02 A2999 RMK AO2 SLP155 T00061017 56017
cycle: 9

Station Type Date Time Source
KLAW TAF 2019/11/18 06:22 UTC NOAA

TAF KLAW 180520Z 1806/1906 30003KT P6SM FEW250
FM181300 23009KT P6SM SCT250
FM190100 31004KT P6SM SCT250

Example: see airport list